createdAt,value
2018-03-04T00:00:00.002Z,42.1
2018-03-04T00:00:51.067Z,42.1
2018-03-04T00:01:40.159Z,42.1
2018-03-04T00:02:30.708Z,42
2018-03-04T00:03:20.473Z,42
2018-03-04T00:04:10.170Z,42
2018-03-04T00:05:01.058Z,42
2018-03-04T00:05:51.206Z,41.9
2018-03-04T00:06:41.243Z,41.9
2018-03-04T00:07:30.744Z,41.9
2018-03-04T00:08:20.910Z,41.9
2018-03-04T00:09:11.904Z,41.8
2018-03-04T00:10:00.935Z,41.8
2018-03-04T00:10:51.737Z,41.8
2018-03-04T00:11:40.776Z,41.8
2018-03-04T00:12:31.282Z,41.8
2018-03-04T00:13:21.632Z,41.8
2018-03-04T00:14:11.386Z,41.8
2018-03-04T00:15:00.796Z,41.8
2018-03-04T00:15:51.145Z,41.7
2018-03-04T00:16:41.854Z,41.7
2018-03-04T00:17:31.645Z,41.7
2018-03-04T00:18:22.022Z,41.7
2018-03-04T00:19:12.118Z,41.6
2018-03-04T00:20:01.604Z,41.6
2018-03-04T00:20:51.507Z,41.6
2018-03-04T00:21:41.462Z,41.6
2018-03-04T00:22:31.722Z,41.6
2018-03-04T00:23:21.577Z,41.6
2018-03-04T00:24:11.722Z,41.5
2018-03-04T00:25:01.907Z,41.5
2018-03-04T00:25:51.909Z,41.5
2018-03-04T00:26:41.423Z,41.5
2018-03-04T00:27:32.241Z,41.4
2018-03-04T00:28:22.469Z,41.4
2018-03-04T00:29:13.652Z,41.4
2018-03-04T00:30:02.631Z,41.4
2018-03-04T00:30:51.689Z,41.3
2018-03-04T00:31:42.451Z,41.4
2018-03-04T00:32:32.487Z,41.3
2018-03-04T00:33:21.992Z,41.3
2018-03-04T00:34:12.618Z,41.3
2018-03-04T00:35:02.478Z,41.3
2018-03-04T00:35:53.007Z,41.3
2018-03-04T00:36:42.719Z,41.3
2018-03-04T00:37:32.933Z,41.3
2018-03-04T00:38:23.139Z,41.2
2018-03-04T00:39:12.795Z,41.2
2018-03-04T00:40:02.331Z,41.2
2018-03-04T00:40:53.863Z,41.2
2018-03-04T00:41:42.300Z,41.1
2018-03-04T00:42:33.201Z,41.1
2018-03-04T00:43:23.863Z,41.1
2018-03-04T00:44:13.036Z,41.1
2018-03-04T00:45:02.530Z,41.1
2018-03-04T00:45:52.867Z,41.1
2018-03-04T00:46:42.836Z,41.1
2018-03-04T00:47:34.420Z,41.1
2018-03-04T00:48:23.255Z,41
2018-03-04T00:49:12.960Z,41
2018-03-04T00:50:03.231Z,41
2018-03-04T00:50:54.351Z,40.9
2018-03-04T00:51:44.728Z,40.9
2018-03-04T00:52:34.398Z,40.9
2018-03-04T00:53:25.012Z,40.9
2018-03-04T00:54:14.050Z,40.9
2018-03-04T00:55:03.572Z,40.9
2018-03-04T00:55:54.872Z,40.9
2018-03-04T00:56:45.249Z,40.8
2018-03-04T00:57:34.042Z,40.9
2018-03-04T00:58:25.062Z,40.9
2018-03-04T00:59:15.160Z,40.8
2018-03-04T01:00:04.590Z,40.8
2018-03-04T01:00:54.292Z,40.8
2018-03-04T01:01:44.861Z,40.8
2018-03-04T01:02:34.791Z,40.8
2018-03-04T01:03:25.449Z,40.8
2018-03-04T01:04:14.352Z,40.7
2018-03-04T01:05:05.391Z,40.7
2018-03-04T01:05:54.617Z,40.7
2018-03-04T01:06:44.386Z,40.7
2018-03-04T01:07:34.633Z,40.6
2018-03-04T01:08:24.845Z,40.6
2018-03-04T01:09:15.245Z,40.6
2018-03-04T01:10:04.842Z,40.6
2018-03-04T01:10:55.144Z,40.6
2018-03-04T01:11:45.560Z,40.6
2018-03-04T01:12:35.664Z,40.5
2018-03-04T01:13:25.457Z,40.5
2018-03-04T01:14:15.036Z,40.5
2018-03-04T01:15:05.978Z,40.5
2018-03-04T01:15:55.423Z,40.5
2018-03-04T01:16:45.641Z,40.4
2018-03-04T01:17:35.761Z,40.4
2018-03-04T01:18:25.414Z,40.4
2018-03-04T01:19:15.869Z,40.4
2018-03-04T01:20:06.018Z,40.4
2018-03-04T01:20:55.614Z,40.4
2018-03-04T01:21:45.953Z,40.4
2018-03-04T01:22:36.303Z,40.4
2018-03-04T01:23:26.081Z,40.3
2018-03-04T01:24:16.073Z,40.3
2018-03-04T01:25:05.841Z,40.3
2018-03-04T01:25:56.521Z,40.3
2018-03-04T01:26:47.098Z,40.3
2018-03-04T01:27:35.788Z,40.3
2018-03-04T01:28:26.225Z,40.3
2018-03-04T01:29:15.521Z,40.2
2018-03-04T01:30:06.993Z,40.2
2018-03-04T01:30:56.330Z,40.2
2018-03-04T01:31:46.827Z,40.1
2018-03-04T01:32:36.810Z,40.2
2018-03-04T01:33:26.842Z,40.1
2018-03-04T01:34:17.137Z,40.1
2018-03-04T01:35:06.596Z,40.1
2018-03-04T01:35:57.140Z,40.1
2018-03-04T01:36:47.245Z,40.1
2018-03-04T01:37:37.205Z,40.1
2018-03-04T01:38:26.824Z,40.1
2018-03-04T01:39:16.385Z,40
2018-03-04T01:40:07.025Z,40
2018-03-04T01:40:57.568Z,40
2018-03-04T01:41:48.426Z,40
2018-03-04T01:42:36.265Z,40
2018-03-04T01:43:26.690Z,40
2018-03-04T01:44:18.109Z,39.9
2018-03-04T01:45:06.792Z,39.9
2018-03-04T01:45:58.119Z,39.9
2018-03-04T01:46:47.760Z,39.9
2018-03-04T01:47:38.610Z,39.9
2018-03-04T01:48:28.365Z,39.9
2018-03-04T01:49:17.294Z,39.9
2018-03-04T01:50:07.552Z,39.8
2018-03-04T01:50:57.296Z,39.8
2018-03-04T01:51:47.999Z,39.8
2018-03-04T01:52:37.819Z,39.8
2018-03-04T01:53:29.000Z,39.8
2018-03-04T01:54:18.142Z,39.8
2018-03-04T01:55:08.846Z,39.8
2018-03-04T01:55:58.157Z,39.8
2018-03-04T01:56:48.631Z,39.7
2018-03-04T01:57:38.396Z,39.8
2018-03-04T01:58:28.839Z,39.7
2018-03-04T01:59:18.803Z,39.7
2018-03-04T02:00:08.103Z,39.7
2018-03-04T02:00:58.318Z,39.7
2018-03-04T02:01:49.319Z,39.9
2018-03-04T02:02:38.996Z,40.3
2018-03-04T02:03:29.330Z,40.6
2018-03-04T02:04:19.506Z,41
2018-03-04T02:05:08.890Z,41.4
2018-03-04T02:06:00.096Z,41.6
2018-03-04T02:06:48.169Z,41.9
2018-03-04T02:07:39.278Z,42.1
2018-03-04T02:08:29.523Z,42.4
2018-03-04T02:09:19.055Z,42.6
2018-03-04T02:10:09.263Z,42.8
2018-03-04T02:10:59.843Z,42.9
2018-03-04T02:11:49.455Z,43.1
2018-03-04T02:12:38.832Z,43.3
2018-03-04T02:13:29.088Z,43.4
2018-03-04T02:14:19.616Z,43.6
2018-03-04T02:15:09.124Z,43.7
2018-03-04T02:15:59.863Z,43.9
2018-03-04T02:16:49.813Z,44
2018-03-04T02:17:40.082Z,44.1
2018-03-04T02:18:29.555Z,44.3
2018-03-04T02:19:19.855Z,44.4
2018-03-04T02:20:09.945Z,44.5
2018-03-04T02:20:59.825Z,44.6
2018-03-04T02:21:50.482Z,44.8
2018-03-04T02:22:40.538Z,44.8
2018-03-04T02:23:29.507Z,44.9
2018-03-04T02:24:20.668Z,45
2018-03-04T02:25:10.237Z,45.1
2018-03-04T02:26:00.530Z,45.2
2018-03-04T02:26:50.544Z,45.3
2018-03-04T02:27:39.898Z,45.4
2018-03-04T02:28:31.304Z,45.6
2018-03-04T02:29:19.827Z,45.6
2018-03-04T02:30:11.494Z,45.7
2018-03-04T02:31:00.645Z,45.7
2018-03-04T02:31:51.241Z,45.7
2018-03-04T02:32:40.163Z,45.8
2018-03-04T02:33:30.498Z,45.8
2018-03-04T02:34:21.254Z,45.8
2018-03-04T02:35:11.780Z,45.8
2018-03-04T02:36:01.110Z,45.8
2018-03-04T02:36:51.456Z,45.9
2018-03-04T02:37:41.984Z,45.9
2018-03-04T02:38:30.968Z,46
2018-03-04T02:39:21.125Z,46.1
2018-03-04T02:40:11.180Z,46.2
2018-03-04T02:41:01.349Z,46.3
2018-03-04T02:41:52.390Z,46.3
2018-03-04T02:42:41.144Z,46.3
2018-03-04T02:43:32.052Z,46.3
2018-03-04T02:44:22.233Z,46.3
2018-03-04T02:45:10.593Z,46.3
2018-03-04T02:46:01.694Z,46.3
2018-03-04T02:46:52.759Z,46.3
2018-03-04T02:47:41.964Z,46.4
2018-03-04T02:48:32.278Z,46.4
2018-03-04T02:49:22.908Z,46.4
2018-03-04T02:50:11.833Z,46.4
2018-03-04T02:51:02.454Z,46.4
2018-03-04T02:51:53.373Z,46.5
2018-03-04T02:52:41.790Z,46.5
2018-03-04T02:53:32.316Z,46.5
2018-03-04T02:54:22.266Z,46.6
2018-03-04T02:55:11.727Z,46.6
2018-03-04T02:56:02.611Z,46.6
2018-03-04T02:56:52.806Z,46.6
2018-03-04T02:57:42.184Z,46.6
2018-03-04T02:58:33.091Z,46.7
2018-03-04T02:59:23.905Z,46.8
2018-03-04T03:00:13.726Z,46.8
2018-03-04T03:01:03.432Z,46.8
2018-03-04T03:01:52.896Z,46.9
2018-03-04T03:02:43.163Z,46.8
2018-03-04T03:03:33.528Z,46.9
2018-03-04T03:04:23.969Z,46.9
2018-03-04T03:05:13.125Z,46.9
2018-03-04T03:06:03.764Z,46.9
2018-03-04T03:06:53.118Z,46.9
2018-03-04T03:07:43.923Z,47
2018-03-04T03:08:33.072Z,47
2018-03-04T03:09:23.988Z,47.1
2018-03-04T03:10:13.822Z,47.1
2018-03-04T03:11:03.846Z,47.1
2018-03-04T03:11:53.675Z,47.2
2018-03-04T03:12:44.298Z,47.2
2018-03-04T03:13:34.097Z,47.2
2018-03-04T03:14:24.116Z,47.2
2018-03-04T03:15:14.423Z,47.2
2018-03-04T03:16:04.120Z,47.2
2018-03-04T03:16:54.618Z,47.2
2018-03-04T03:17:44.866Z,47.2
2018-03-04T03:18:34.457Z,47.2
2018-03-04T03:19:23.935Z,47.3
2018-03-04T03:20:14.405Z,47.3
2018-03-04T03:21:04.884Z,47.4
2018-03-04T03:21:54.683Z,47.4
2018-03-04T03:22:43.633Z,47.4
2018-03-04T03:23:34.479Z,47.4
2018-03-04T03:24:25.623Z,47.4
2018-03-04T03:25:14.205Z,47.4
2018-03-04T03:26:04.034Z,47.4
2018-03-04T03:26:54.624Z,47.4
2018-03-04T03:27:44.959Z,47.3
2018-03-04T03:28:35.404Z,47.4
2018-03-04T03:29:24.859Z,47.3
2018-03-04T03:30:15.800Z,47.4
2018-03-04T03:31:05.417Z,47.4
2018-03-04T03:31:54.997Z,47.3
2018-03-04T03:32:45.600Z,47.3
2018-03-04T03:33:35.600Z,47.3
2018-03-04T03:34:25.061Z,47.3
2018-03-04T03:35:15.125Z,47.3
2018-03-04T03:36:05.096Z,47.3
2018-03-04T03:36:55.719Z,47.3
2018-03-04T03:37:45.122Z,47.2
2018-03-04T03:38:35.826Z,47.2
2018-03-04T03:39:25.803Z,47.2
2018-03-04T03:40:15.945Z,47.2
2018-03-04T03:41:06.183Z,47.2
2018-03-04T03:41:55.762Z,47.2
2018-03-04T03:42:45.500Z,47.1
2018-03-04T03:43:36.628Z,47.1
2018-03-04T03:44:26.055Z,47.1
2018-03-04T03:45:16.476Z,47.1
2018-03-04T03:46:05.495Z,47.1
2018-03-04T03:46:55.023Z,47.1
2018-03-04T03:47:47.185Z,47.1
2018-03-04T03:48:36.022Z,47.1
2018-03-04T03:49:26.837Z,47.1
2018-03-04T03:50:16.931Z,47.1
2018-03-04T03:51:06.715Z,47.1
2018-03-04T03:51:56.680Z,47.1
2018-03-04T03:52:46.573Z,47.1
2018-03-04T03:53:36.204Z,47.1
2018-03-04T03:54:26.242Z,47.1
2018-03-04T03:55:16.927Z,47.1
2018-03-04T03:56:07.529Z,47.1
2018-03-04T03:56:57.950Z,47.1
2018-03-04T03:57:46.521Z,47.1
2018-03-04T03:58:37.169Z,47.1
2018-03-04T03:59:26.984Z,47.1
2018-03-04T04:00:17.660Z,47.1
2018-03-04T04:01:07.291Z,47.1
2018-03-04T04:01:57.148Z,47.1
2018-03-04T04:02:47.528Z,47
2018-03-04T04:03:37.958Z,47
2018-03-04T04:04:26.969Z,47
2018-03-04T04:05:17.003Z,47
2018-03-04T04:06:07.529Z,47
2018-03-04T04:06:58.408Z,46.9
2018-03-04T04:07:48.346Z,46.9
2018-03-04T04:08:35.792Z,46.9
2018-03-04T04:09:27.918Z,46.9
2018-03-04T04:10:16.798Z,46.9
2018-03-04T04:11:07.326Z,46.9
2018-03-04T04:11:58.153Z,46.9
2018-03-04T04:12:48.433Z,46.9
2018-03-04T04:13:38.216Z,46.8
2018-03-04T04:14:27.639Z,46.8
2018-03-04T04:15:17.881Z,46.8
2018-03-04T04:16:07.690Z,46.8
2018-03-04T04:16:58.306Z,46.8
2018-03-04T04:17:48.846Z,46.8
2018-03-04T04:18:38.055Z,46.8
2018-03-04T04:19:28.869Z,46.8
2018-03-04T04:20:17.957Z,46.8
2018-03-04T04:21:08.310Z,46.8
2018-03-04T04:21:58.601Z,46.8
2018-03-04T04:22:48.456Z,46.8
2018-03-04T04:23:38.989Z,46.7
2018-03-04T04:24:29.016Z,46.7
2018-03-04T04:25:33.130Z,46.7
2018-03-04T04:26:08.962Z,46.7
2018-03-04T04:26:59.145Z,46.7
2018-03-04T04:27:49.720Z,46.6
2018-03-04T04:28:39.522Z,46.7
2018-03-04T04:29:30.116Z,46.6
2018-03-04T04:30:19.937Z,46.6
2018-03-04T04:31:10.033Z,46.6
2018-03-04T04:32:00.023Z,46.6
2018-03-04T04:32:50.078Z,46.6
2018-03-04T04:33:39.592Z,46.6
2018-03-04T04:34:30.480Z,46.6
2018-03-04T04:35:19.983Z,46.6
2018-03-04T04:36:10.921Z,46.6
2018-03-04T04:37:00.355Z,46.5
2018-03-04T04:37:50.697Z,46.5
2018-03-04T04:38:40.745Z,46.5
2018-03-04T04:39:30.039Z,46.5
2018-03-04T04:40:19.687Z,46.5
2018-03-04T04:41:10.670Z,46.4
2018-03-04T04:42:00.674Z,46.4
2018-03-04T04:42:50.829Z,46.4
2018-03-04T04:43:39.684Z,46.4
2018-03-04T04:44:30.409Z,46.4
2018-03-04T04:45:20.436Z,46.4
2018-03-04T04:46:10.295Z,46.4
2018-03-04T04:46:59.279Z,46.3
2018-03-04T04:47:50.570Z,46.4
2018-03-04T04:48:40.170Z,46.3
2018-03-04T04:49:30.403Z,46.3
2018-03-04T04:50:20.256Z,46.3
2018-03-04T04:51:10.420Z,46.3
2018-03-04T04:52:00.604Z,46.2
2018-03-04T04:52:50.697Z,46.2
2018-03-04T04:53:40.020Z,46.2
2018-03-04T04:54:30.349Z,46.2
2018-03-04T04:55:20.132Z,46.2
2018-03-04T04:56:11.210Z,46.2
2018-03-04T04:57:00.834Z,46.2
2018-03-04T04:57:51.054Z,46.2
2018-03-04T04:58:41.273Z,46.1
2018-03-04T04:59:31.501Z,46.1
2018-03-04T05:00:21.002Z,46.1
2018-03-04T05:01:11.966Z,46.1
2018-03-04T05:02:00.629Z,46.1
2018-03-04T05:02:50.965Z,46.1
2018-03-04T05:03:38.584Z,46.1
2018-03-04T05:04:31.630Z,46.1
2018-03-04T05:05:21.824Z,46
2018-03-04T05:06:11.611Z,46
2018-03-04T05:07:01.561Z,46
2018-03-04T05:07:52.179Z,46
2018-03-04T05:08:42.503Z,46
2018-03-04T05:09:32.686Z,46
2018-03-04T05:10:22.461Z,45.9
2018-03-04T05:11:12.603Z,45.9
2018-03-04T05:12:02.394Z,45.9
2018-03-04T05:12:52.636Z,45.9
2018-03-04T05:13:42.588Z,45.9
2018-03-04T05:14:32.255Z,45.9
2018-03-04T05:15:22.277Z,45.9
2018-03-04T05:16:12.182Z,45.9
2018-03-04T05:17:02.340Z,45.9
2018-03-04T05:17:52.676Z,45.8
2018-03-04T05:18:42.080Z,45.8
2018-03-04T05:19:33.450Z,45.8
2018-03-04T05:20:23.118Z,45.8
2018-03-04T05:21:12.924Z,45.8
2018-03-04T05:22:02.780Z,45.8
2018-03-04T05:22:52.291Z,45.8
2018-03-04T05:23:42.140Z,45.8
2018-03-04T05:24:32.078Z,45.7
2018-03-04T05:25:22.915Z,45.7
2018-03-04T05:26:13.577Z,45.7
2018-03-04T05:27:03.167Z,45.7
2018-03-04T05:27:52.404Z,45.7
2018-03-04T05:28:43.152Z,45.7
2018-03-04T05:29:33.120Z,45.7
2018-03-04T05:30:23.299Z,45.7
2018-03-04T05:31:13.754Z,45.6
2018-03-04T05:32:03.134Z,45.6
2018-03-04T05:32:54.213Z,45.6
2018-03-04T05:33:43.291Z,45.6
2018-03-04T05:34:34.079Z,45.6
2018-03-04T05:35:24.214Z,45.6
2018-03-04T05:36:13.584Z,45.6
2018-03-04T05:37:04.088Z,45.6
2018-03-04T05:37:53.339Z,45.6
2018-03-04T05:38:44.774Z,45.5
2018-03-04T05:39:33.819Z,45.5
2018-03-04T05:40:24.376Z,45.4
2018-03-04T05:41:13.631Z,45.4
2018-03-04T05:42:04.740Z,45.4
2018-03-04T05:42:53.923Z,45.4
2018-03-04T05:43:45.076Z,45.4
2018-03-04T05:44:34.675Z,45.3
2018-03-04T05:45:24.991Z,45.3
2018-03-04T05:46:14.101Z,45.3
2018-03-04T05:47:04.398Z,45.3
2018-03-04T05:47:55.463Z,45.3
2018-03-04T05:48:45.403Z,45.3
2018-03-04T05:49:35.276Z,45.3
2018-03-04T05:50:24.046Z,45.3
2018-03-04T05:51:15.326Z,45.3
2018-03-04T05:52:04.716Z,45.2
2018-03-04T05:52:54.618Z,45.2
2018-03-04T05:53:44.628Z,45.2
2018-03-04T05:54:35.067Z,45.2
2018-03-04T05:55:24.818Z,45.2
2018-03-04T05:56:14.816Z,45.2
2018-03-04T05:57:04.656Z,45.2
2018-03-04T05:57:54.315Z,45.1
2018-03-04T05:58:45.055Z,45.2
2018-03-04T05:59:35.797Z,45.1
2018-03-04T06:00:25.488Z,45.1
2018-03-04T06:01:15.853Z,45.1
2018-03-04T06:02:05.980Z,45.1
2018-03-04T06:02:55.262Z,45.1
2018-03-04T06:03:44.830Z,45.1
2018-03-04T06:04:35.795Z,45.1
2018-03-04T06:05:26.267Z,45.1
2018-03-04T06:06:15.601Z,45
2018-03-04T06:07:05.642Z,45
2018-03-04T06:07:56.089Z,45
2018-03-04T06:08:46.234Z,45
2018-03-04T06:09:35.720Z,45
2018-03-04T06:10:25.336Z,45
2018-03-04T06:11:16.054Z,44.9
2018-03-04T06:12:07.049Z,44.9
2018-03-04T06:12:57.142Z,44.9
2018-03-04T06:13:46.869Z,44.9
2018-03-04T06:14:37.548Z,44.9
2018-03-04T06:15:27.249Z,44.9
2018-03-04T06:16:17.072Z,44.9
2018-03-04T06:17:07.212Z,44.8
2018-03-04T06:17:57.194Z,44.8
2018-03-04T06:18:47.794Z,44.8
2018-03-04T06:19:37.560Z,44.8
2018-03-04T06:20:28.234Z,44.8
2018-03-04T06:21:17.954Z,44.8
2018-03-04T06:22:07.224Z,44.8
2018-03-04T06:22:58.079Z,44.8
2018-03-04T06:23:47.269Z,44.8
2018-03-04T06:24:37.961Z,44.8
2018-03-04T06:25:28.276Z,44.7
2018-03-04T06:26:18.358Z,44.8
2018-03-04T06:27:08.412Z,44.7
2018-03-04T06:27:57.906Z,44.7
2018-03-04T06:28:48.206Z,44.7
2018-03-04T06:29:37.949Z,44.6
2018-03-04T06:30:28.029Z,44.6
2018-03-04T06:31:18.373Z,44.6
2018-03-04T06:32:07.741Z,44.6
2018-03-04T06:32:57.763Z,44.6
2018-03-04T06:33:48.196Z,44.6
2018-03-04T06:34:36.986Z,44.6
2018-03-04T06:35:27.428Z,44.6
2018-03-04T06:36:18.480Z,44.6
2018-03-04T06:37:08.511Z,44.5
2018-03-04T06:37:57.730Z,44.5
2018-03-04T06:38:47.798Z,44.5
2018-03-04T06:39:39.168Z,44.5
2018-03-04T06:40:28.185Z,44.4
2018-03-04T06:41:18.268Z,44.4
2018-03-04T06:42:09.078Z,44.4
2018-03-04T06:42:58.533Z,44.4
2018-03-04T06:43:47.517Z,44.4
2018-03-04T06:44:38.820Z,44.4
2018-03-04T06:45:28.428Z,44.3
2018-03-04T06:46:19.460Z,44.3
2018-03-04T06:47:09.112Z,44.3
2018-03-04T06:47:58.327Z,44.2
2018-03-04T06:48:48.748Z,44.2
2018-03-04T06:49:38.432Z,44.2
2018-03-04T06:50:29.330Z,44.1
2018-03-04T06:51:18.372Z,44.1
2018-03-04T06:52:08.783Z,44.1
2018-03-04T06:52:58.650Z,44.1
2018-03-04T06:53:48.762Z,44
2018-03-04T06:54:39.754Z,44
2018-03-04T06:55:29.139Z,44
2018-03-04T06:56:18.905Z,43.9
2018-03-04T06:57:09.652Z,43.9
2018-03-04T06:57:59.442Z,43.9
2018-03-04T06:58:49.104Z,43.9
2018-03-04T06:59:39.745Z,43.9
2018-03-04T07:00:30.005Z,43.9
2018-03-04T07:01:19.761Z,43.9
2018-03-04T07:02:09.801Z,43.8
2018-03-04T07:03:00.049Z,43.8
2018-03-04T07:03:50.208Z,43.8
2018-03-04T07:04:39.549Z,43.8
2018-03-04T07:05:30.371Z,43.8
2018-03-04T07:06:20.107Z,43.7
2018-03-04T07:07:10.059Z,43.6
2018-03-04T07:07:59.832Z,43.7
2018-03-04T07:08:50.145Z,43.7
2018-03-04T07:09:40.946Z,43.7
2018-03-04T07:10:30.817Z,43.6
2018-03-04T07:11:20.334Z,43.7
2018-03-04T07:12:09.994Z,43.6
2018-03-04T07:13:00.979Z,43.7
2018-03-04T07:13:50.594Z,43.7
2018-03-04T07:14:39.974Z,43.6
2018-03-04T07:15:31.216Z,43.6
2018-03-04T07:16:21.679Z,43.5
2018-03-04T07:17:11.001Z,43.5
2018-03-04T07:18:01.308Z,43.5
2018-03-04T07:18:49.748Z,43.4
2018-03-04T07:19:40.995Z,43.4
2018-03-04T07:20:30.291Z,43.4
2018-03-04T07:21:20.351Z,43.4
2018-03-04T07:22:11.661Z,43.4
2018-03-04T07:23:01.241Z,43.4
2018-03-04T07:23:51.523Z,43.4
2018-03-04T07:24:41.661Z,43.4
2018-03-04T07:25:31.534Z,43.4
2018-03-04T07:26:21.708Z,43.3
2018-03-04T07:27:11.159Z,43.4
2018-03-04T07:28:02.537Z,43.3
2018-03-04T07:28:51.180Z,43.3
2018-03-04T07:29:42.041Z,43.3
2018-03-04T07:30:32.387Z,43.3
2018-03-04T07:31:21.566Z,43.3
2018-03-04T07:32:12.323Z,43.3
2018-03-04T07:33:01.832Z,43.3
2018-03-04T07:33:51.802Z,43.3
2018-03-04T07:34:41.543Z,43.3
2018-03-04T07:35:32.931Z,43.3
2018-03-04T07:36:22.083Z,43.3
2018-03-04T07:37:11.952Z,43.2
2018-03-04T07:38:01.880Z,43.2
2018-03-04T07:38:52.517Z,43.2
2018-03-04T07:39:43.202Z,43.2
2018-03-04T07:40:31.977Z,43.2
2018-03-04T07:41:22.132Z,43.2
2018-03-04T07:42:12.009Z,43.1
2018-03-04T07:43:02.517Z,43.2
2018-03-04T07:43:52.312Z,43.1
2018-03-04T07:44:43.073Z,43.1
2018-03-04T07:45:31.832Z,43.1
2018-03-04T07:46:23.490Z,43.1
2018-03-04T07:47:12.821Z,43.1
2018-03-04T07:48:02.450Z,43.1
2018-03-04T07:48:53.649Z,43.1
2018-03-04T07:49:42.829Z,43.1
2018-03-04T07:50:33.671Z,43.1
2018-03-04T07:51:23.008Z,43.1
2018-03-04T07:52:13.199Z,43
2018-03-04T07:53:02.684Z,42.9
2018-03-04T07:53:54.279Z,42.9
2018-03-04T07:54:43.726Z,42.9
2018-03-04T07:55:33.437Z,42.8
2018-03-04T07:56:24.067Z,42.8
2018-03-04T07:57:13.367Z,42.8
2018-03-04T07:58:04.089Z,42.8
2018-03-04T07:58:53.766Z,42.8
2018-03-04T07:59:43.888Z,42.8
2018-03-04T08:00:34.486Z,42.7
2018-03-04T08:01:22.914Z,42.7
2018-03-04T08:02:14.074Z,42.7
2018-03-04T08:03:03.510Z,42.6
2018-03-04T08:03:54.212Z,42.6
2018-03-04T08:04:44.082Z,42.6
2018-03-04T08:05:33.959Z,42.6
2018-03-04T08:06:24.265Z,42.6
2018-03-04T08:07:14.019Z,42.6
2018-03-04T08:08:03.706Z,42.6
2018-03-04T08:08:54.736Z,42.6
2018-03-04T08:09:43.745Z,42.6
2018-03-04T08:10:33.996Z,42.5
2018-03-04T08:11:25.046Z,42.5
2018-03-04T08:12:14.796Z,42.5
2018-03-04T08:13:05.030Z,42.4
2018-03-04T08:13:55.016Z,42.5
2018-03-04T08:14:45.270Z,42.4
2018-03-04T08:15:34.741Z,42.5
2018-03-04T08:16:24.783Z,42.5
2018-03-04T08:17:15.618Z,42.5
2018-03-04T08:18:04.134Z,42.5
2018-03-04T08:18:55.445Z,42.5
2018-03-04T08:19:45.152Z,42.4
2018-03-04T08:20:34.688Z,42.4
2018-03-04T08:21:25.722Z,42.4
2018-03-04T08:22:15.125Z,42.4
2018-03-04T08:23:05.440Z,42.4
2018-03-04T08:23:55.640Z,42.4
2018-03-04T08:24:45.865Z,42.4
2018-03-04T08:25:35.805Z,42.4
2018-03-04T08:26:26.445Z,42.4
2018-03-04T08:27:17.121Z,42.4
2018-03-04T08:28:05.814Z,42.4
2018-03-04T08:28:56.036Z,42.4
2018-03-04T08:29:45.225Z,42.3
2018-03-04T08:30:36.006Z,42.3
2018-03-04T08:31:26.062Z,42.3
2018-03-04T08:32:16.169Z,42.3
2018-03-04T08:33:04.869Z,42.3
2018-03-04T08:33:56.681Z,42.2
2018-03-04T08:34:46.602Z,42.2
2018-03-04T08:35:36.703Z,42.2
2018-03-04T08:36:26.401Z,42.1
2018-03-04T08:37:17.083Z,42.1
2018-03-04T08:38:07.060Z,42.1
2018-03-04T08:38:56.878Z,42.1
2018-03-04T08:39:46.241Z,42.1
2018-03-04T08:40:37.141Z,42
2018-03-04T08:41:26.440Z,42
2018-03-04T08:42:17.156Z,41.9
2018-03-04T08:43:05.845Z,41.9
2018-03-04T08:43:56.470Z,41.9
2018-03-04T08:44:47.163Z,41.8
2018-03-04T08:45:37.941Z,41.8
2018-03-04T08:46:27.001Z,41.8
2018-03-04T08:47:16.767Z,41.7
2018-03-04T08:48:07.435Z,41.7
2018-03-04T08:48:56.872Z,41.6
2018-03-04T08:49:47.041Z,41.6
2018-03-04T08:50:37.538Z,41.6
2018-03-04T08:51:27.150Z,41.6
2018-03-04T08:52:16.218Z,41.5
2018-03-04T08:53:06.545Z,41.5
2018-03-04T08:53:57.698Z,41.5
2018-03-04T08:54:47.545Z,41.4
2018-03-04T08:55:37.426Z,41.4
2018-03-04T08:56:28.540Z,41.4
2018-03-04T08:57:18.611Z,41.4
2018-03-04T08:58:07.981Z,41.4
2018-03-04T08:58:58.242Z,41.4
2018-03-04T08:59:47.050Z,41.3
2018-03-04T09:00:37.508Z,41.3
2018-03-04T09:01:28.020Z,41.3
2018-03-04T09:02:18.303Z,41.3
2018-03-04T09:03:08.262Z,41.3
2018-03-04T09:03:58.979Z,41.3
2018-03-04T09:04:48.910Z,41.3
2018-03-04T09:05:39.105Z,41.3
2018-03-04T09:06:27.983Z,41.2
2018-03-04T09:07:17.835Z,41.2
2018-03-04T09:08:08.514Z,41.1
2018-03-04T09:08:59.147Z,41.1
2018-03-04T09:09:48.870Z,41.1
2018-03-04T09:10:38.399Z,41.1
2018-03-04T09:11:28.715Z,41.1
2018-03-04T09:12:18.954Z,41.1
2018-03-04T09:13:09.271Z,41
2018-03-04T09:13:59.041Z,41
2018-03-04T09:14:49.827Z,41
2018-03-04T09:15:39.447Z,40.9
2018-03-04T09:16:29.082Z,40.9
2018-03-04T09:17:19.465Z,40.9
2018-03-04T09:18:09.581Z,40.9
2018-03-04T09:18:59.441Z,40.9
2018-03-04T09:19:49.454Z,40.9
2018-03-04T09:20:39.382Z,40.9
2018-03-04T09:21:30.679Z,40.8
2018-03-04T09:22:19.800Z,40.6
2018-03-04T09:23:09.694Z,40.5
2018-03-04T09:23:59.426Z,40.4
2018-03-04T09:24:49.901Z,40.2
2018-03-04T09:25:39.728Z,40.1
2018-03-04T09:26:30.318Z,40.1
2018-03-04T09:27:19.431Z,40
2018-03-04T09:28:09.620Z,39.9
2018-03-04T09:29:00.104Z,39.9
2018-03-04T09:29:49.879Z,39.9
2018-03-04T09:30:40.578Z,39.8
2018-03-04T09:31:30.446Z,39.8
2018-03-04T09:32:20.746Z,39.6
2018-03-04T09:33:09.818Z,39.4
2018-03-04T09:34:00.144Z,39.2
2018-03-04T09:34:50.154Z,38.9
2018-03-04T09:35:40.760Z,38.6
2018-03-04T09:36:31.148Z,38.3
2018-03-04T09:37:21.503Z,38.1
2018-03-04T09:38:11.525Z,37.9
2018-03-04T09:39:00.766Z,37.7
2018-03-04T09:39:51.053Z,37.4
2018-03-04T09:40:40.811Z,37.3
2018-03-04T09:41:30.818Z,37.2
2018-03-04T09:42:20.621Z,37.1
2018-03-04T09:43:10.977Z,36.9
2018-03-04T09:44:01.214Z,36.8
2018-03-04T09:44:51.202Z,36.8
2018-03-04T09:45:42.291Z,36.7
2018-03-04T09:46:31.620Z,36.6
2018-03-04T09:47:21.249Z,36.6
2018-03-04T09:48:11.160Z,36.5
2018-03-04T09:49:01.230Z,36.4
2018-03-04T09:49:52.090Z,36.4
2018-03-04T09:50:42.157Z,36.4
2018-03-04T09:51:32.192Z,36.3
2018-03-04T09:52:21.695Z,36.3
2018-03-04T09:53:11.977Z,36.3
2018-03-04T09:54:01.633Z,36.2
2018-03-04T09:54:51.692Z,36.1
2018-03-04T09:55:41.521Z,36.1
2018-03-04T09:56:31.894Z,36.1
2018-03-04T09:57:22.661Z,36
2018-03-04T09:58:12.011Z,36
2018-03-04T09:59:01.972Z,36
2018-03-04T09:59:52.435Z,35.9
2018-03-04T10:00:41.595Z,35.9
2018-03-04T10:01:32.274Z,35.9
2018-03-04T10:02:22.805Z,35.8
2018-03-04T10:03:11.675Z,35.8
2018-03-04T10:04:02.643Z,35.8
2018-03-04T10:04:53.126Z,35.8
2018-03-04T10:05:43.151Z,35.8
2018-03-04T10:06:32.401Z,35.8
2018-03-04T10:07:23.634Z,35.7
2018-03-04T10:08:13.115Z,35.7
2018-03-04T10:09:02.366Z,35.6
2018-03-04T10:09:52.372Z,35.6
2018-03-04T10:10:43.474Z,35.5
2018-03-04T10:11:33.565Z,35.4
2018-03-04T10:12:23.454Z,35.3
2018-03-04T10:13:12.834Z,35.3
2018-03-04T10:14:02.819Z,44.1
2018-03-04T10:14:53.520Z,49.3
2018-03-04T10:15:42.424Z,48.9
2018-03-04T10:16:33.912Z,48.1
2018-03-04T10:17:23.089Z,47.3
2018-03-04T10:18:13.313Z,46.6
2018-03-04T10:19:04.202Z,45.9
2018-03-04T10:19:53.247Z,45.3
2018-03-04T10:20:43.451Z,44.8
2018-03-04T10:21:33.949Z,44.4
2018-03-04T10:22:23.368Z,44
2018-03-04T10:23:13.688Z,43.6
2018-03-04T10:24:03.125Z,43.3
2018-03-04T10:24:54.061Z,42.9
2018-03-04T10:25:43.667Z,42.6
2018-03-04T10:26:35.227Z,42.3
2018-03-04T10:27:24.245Z,41.9
2018-03-04T10:28:14.686Z,41.7
2018-03-04T10:29:04.012Z,41.4
2018-03-04T10:29:53.173Z,41.2
2018-03-04T10:30:44.885Z,41
2018-03-04T10:31:34.366Z,40.8
2018-03-04T10:32:23.866Z,40.6
2018-03-04T10:33:14.589Z,40.4
2018-03-04T10:34:05.720Z,40.3
2018-03-04T10:34:55.455Z,40.1
2018-03-04T10:35:46.073Z,39.9
2018-03-04T10:36:35.529Z,39.8
2018-03-04T10:37:25.923Z,39.7
2018-03-04T10:38:15.664Z,39.5
2018-03-04T10:39:05.453Z,39.4
2018-03-04T10:39:56.345Z,39.3
2018-03-04T10:40:45.807Z,39.2
2018-03-04T10:41:36.461Z,39.1
2018-03-04T10:42:26.202Z,39
2018-03-04T10:43:16.586Z,38.9
2018-03-04T10:44:06.681Z,38.8
2018-03-04T10:44:56.156Z,38.7
2018-03-04T10:45:46.476Z,38.6
2018-03-04T10:46:36.814Z,38.6
2018-03-04T10:47:26.909Z,38.5
2018-03-04T10:48:16.966Z,38.4
2018-03-04T10:49:05.119Z,38.3
2018-03-04T10:49:55.480Z,38.3
2018-03-04T10:50:46.173Z,38.2
2018-03-04T10:51:36.351Z,38.1
2018-03-04T10:52:26.498Z,38.1
2018-03-04T10:53:16.279Z,38.1
2018-03-04T10:54:05.535Z,38
2018-03-04T10:54:56.720Z,37.9
2018-03-04T10:55:45.886Z,37.9
2018-03-04T10:56:34.928Z,37.8
2018-03-04T10:57:25.031Z,37.8
2018-03-04T10:58:17.093Z,37.8
2018-03-04T10:59:06.652Z,37.7
2018-03-04T10:59:56.716Z,37.6
2018-03-04T11:00:47.136Z,37.6
2018-03-04T11:01:37.352Z,37.5
2018-03-04T11:02:25.935Z,37.5
2018-03-04T11:03:16.044Z,37.4
2018-03-04T11:04:06.654Z,37.4
2018-03-04T11:04:56.163Z,37.4
2018-03-04T11:05:46.388Z,37.3
2018-03-04T11:06:37.518Z,37.3
2018-03-04T11:07:26.823Z,37.3
2018-03-04T11:08:17.338Z,37.2
2018-03-04T11:09:06.216Z,37.1